sensor_id;sensor_type;location;lat;lon;timestamp;temperature;humidity
49829;DHT22;35723;51.194;5.112;2023-09-30T00:00:45;15.80;99.90
49829;DHT22;35723;51.194;5.112;2023-09-30T00:03:11;15.80;99.90
49829;DHT22;35723;51.194;5.112;2023-09-30T00:05:37;15.90;99.90
49829;DHT22;35723;51.194;5.112;2023-09-30T00:08:04;15.80;99.90
49829;DHT22;35723;51.194;5.112;2023-09-30T00:10:30;15.90;99.90
49829;DHT22;35723;51.194;5.112;2023-09-30T00:12:56;15.80;99.90
49829;DHT22;35723;51.194;5.112;2023-09-30T00:15:22;15.80;99.90
49829;DHT22;35723;51.194;5.112;2023-09-30T00:17:48;15.80;99.90
49829;DHT22;35723;51.194;5.112;2023-09-30T00:20:13;15.80;99.90
49829;DHT22;35723;51.194;5.112;2023-09-30T00:22:42;15.90;99.90
49829;DHT22;35723;51.194;5.112;2023-09-30T00:25:08;15.90;99.90
49829;DHT22;35723;51.194;5.112;2023-09-30T00:27:34;15.80;99.90
49829;DHT22;35723;51.194;5.112;2023-09-30T00:29:59;15.70;99.90
49829;DHT22;35723;51.194;5.112;2023-09-30T00:32:25;15.80;99.90
49829;DHT22;35723;51.194;5.112;2023-09-30T00:34:51;15.80;99.90
49829;DHT22;35723;51.194;5.112;2023-09-30T00:37:18;15.80;99.90
49829;DHT22;35723;51.194;5.112;2023-09-30T00:39:43;15.80;99.90
49829;DHT22;35723;51.194;5.112;2023-09-30T00:42:10;15.80;99.90
49829;DHT22;35723;51.194;5.112;2023-09-30T00:44:36;15.80;99.90
49829;DHT22;35723;51.194;5.112;2023-09-30T00:47:02;15.60;99.90
49829;DHT22;35723;51.194;5.112;2023-09-30T00:49:28;15.60;99.90
49829;DHT22;35723;51.194;5.112;2023-09-30T00:51:55;15.60;99.90
49829;DHT22;35723;51.194;5.112;2023-09-30T00:54:22;15.60;99.90
49829;DHT22;35723;51.194;5.112;2023-09-30T00:56:50;15.60;99.90
49829;DHT22;35723;51.194;5.112;2023-09-30T00:59:17;15.60;99.90
49829;DHT22;35723;51.194;5.112;2023-09-30T01:01:45;15.70;99.90
49829;DHT22;35723;51.194;5.112;2023-09-30T01:04:12;15.70;99.90
49829;DHT22;35723;51.194;5.112;2023-09-30T01:06:38;15.70;99.90
49829;DHT22;35723;51.194;5.112;2023-09-30T01:09:04;15.60;99.90
49829;DHT22;35723;51.194;5.112;2023-09-30T01:11:30;15.70;99.90
49829;DHT22;35723;51.194;5.112;2023-09-30T01:13:56;15.70;99.90
49829;DHT22;35723;51.194;5.112;2023-09-30T01:16:22;15.60;99.90
49829;DHT22;35723;51.194;5.112;2023-09-30T01:18:49;15.50;99.90
49829;DHT22;35723;51.194;5.112;2023-09-30T01:21:15;15.60;99.90
49829;DHT22;35723;51.194;5.112;2023-09-30T01:23:41;15.60;99.90
49829;DHT22;35723;51.194;5.112;2023-09-30T01:26:11;15.50;99.90
49829;DHT22;35723;51.194;5.112;2023-09-30T01:28:40;15.50;99.90
49829;DHT22;35723;51.194;5.112;2023-09-30T01:31:06;15.30;99.90
49829;DHT22;35723;51.194;5.112;2023-09-30T01:33:32;15.40;99.90
49829;DHT22;35723;51.194;5.112;2023-09-30T01:35:59;15.40;99.90
49829;DHT22;35723;51.194;5.112;2023-09-30T01:38:27;15.40;99.90
49829;DHT22;35723;51.194;5.112;2023-09-30T01:40:53;15.40;99.90
49829;DHT22;35723;51.194;5.112;2023-09-30T01:43:19;15.40;99.90
49829;DHT22;35723;51.194;5.112;2023-09-30T01:45:45;15.30;99.90
49829;DHT22;35723;51.194;5.112;2023-09-30T01:48:11;15.40;99.90
49829;DHT22;35723;51.194;5.112;2023-09-30T01:50:40;15.30;99.90
49829;DHT22;35723;51.194;5.112;2023-09-30T01:53:06;15.20;99.90
49829;DHT22;35723;51.194;5.112;2023-09-30T01:55:38;15.20;99.90
49829;DHT22;35723;51.194;5.112;2023-09-30T01:58:04;15.20;99.90
49829;DHT22;35723;51.194;5.112;2023-09-30T02:00:30;15.20;99.90
49829;DHT22;35723;51.194;5.112;2023-09-30T02:02:56;15.20;99.90
49829;DHT22;35723;51.194;5.112;2023-09-30T02:05:22;15.20;99.90
49829;DHT22;35723;51.194;5.112;2023-09-30T02:07:49;15.10;99.90
49829;DHT22;35723;51.194;5.112;2023-09-30T02:10:16;15.10;99.90
49829;DHT22;35723;51.194;5.112;2023-09-30T02:12:44;15.10;99.90
49829;DHT22;35723;51.194;5.112;2023-09-30T02:15:10;15.10;99.90
49829;DHT22;35723;51.194;5.112;2023-09-30T02:17:37;15.10;99.90
49829;DHT22;35723;51.194;5.112;2023-09-30T02:20:02;15.10;99.90
49829;DHT22;35723;51.194;5.112;2023-09-30T02:22:32;15.00;99.90
49829;DHT22;35723;51.194;5.112;2023-09-30T02:24:58;15.10;99.90
49829;DHT22;35723;51.194;5.112;2023-09-30T02:27:24;15.10;99.90
49829;DHT22;35723;51.194;5.112;2023-09-30T02:29:49;15.00;99.90
49829;DHT22;35723;51.194;5.112;2023-09-30T02:32:15;14.90;99.90
49829;DHT22;35723;51.194;5.112;2023-09-30T02:34:41;14.80;99.90
49829;DHT22;35723;51.194;5.112;2023-09-30T02:37:08;14.90;99.90
49829;DHT22;35723;51.194;5.112;2023-09-30T02:39:35;14.90;99.90
49829;DHT22;35723;51.194;5.112;2023-09-30T02:42:02;14.80;99.90
49829;DHT22;35723;51.194;5.112;2023-09-30T02:44:28;14.90;99.90
49829;DHT22;35723;51.194;5.112;2023-09-30T02:46:53;14.80;99.90
49829;DHT22;35723;51.194;5.112;2023-09-30T02:49:20;14.90;99.90
49829;DHT22;35723;51.194;5.112;2023-09-30T02:51:46;14.90;99.90
49829;DHT22;35723;51.194;5.112;2023-09-30T02:54:12;15.00;99.90
49829;DHT22;35723;51.194;5.112;2023-09-30T02:56:41;14.90;99.90
49829;DHT22;35723;51.194;5.112;2023-09-30T02:59:06;15.00;99.90
49829;DHT22;35723;51.194;5.112;2023-09-30T03:01:33;14.90;99.90
49829;DHT22;35723;51.194;5.112;2023-09-30T03:03:58;14.90;99.90
49829;DHT22;35723;51.194;5.112;2023-09-30T03:06:24;14.90;99.90
49829;DHT22;35723;51.194;5.112;2023-09-30T03:08:50;14.90;99.90
49829;DHT22;35723;51.194;5.112;2023-09-30T03:11:17;14.80;99.90
49829;DHT22;35723;51.194;5.112;2023-09-30T03:13:45;14.80;99.90
49829;DHT22;35723;51.194;5.112;2023-09-30T03:16:11;14.90;99.90
49829;DHT22;35723;51.194;5.112;2023-09-30T03:18:37;14.90;99.90
49829;DHT22;35723;51.194;5.112;2023-09-30T03:21:02;14.90;99.90
49829;DHT22;35723;51.194;5.112;2023-09-30T03:23:38;14.90;99.90
49829;DHT22;35723;51.194;5.112;2023-09-30T03:26:05;14.90;99.90
49829;DHT22;35723;51.194;5.112;2023-09-30T03:28:36;14.70;99.90
49829;DHT22;35723;51.194;5.112;2023-09-30T03:31:03;14.70;99.90
49829;DHT22;35723;51.194;5.112;2023-09-30T03:33:31;14.80;99.90
49829;DHT22;35723;51.194;5.112;2023-09-30T03:35:58;14.80;99.90
49829;DHT22;35723;51.194;5.112;2023-09-30T03:38:25;14.70;99.90
49829;DHT22;35723;51.194;5.112;2023-09-30T03:40:51;14.70;99.90
49829;DHT22;35723;51.194;5.112;2023-09-30T03:43:19;14.80;99.90
49829;DHT22;35723;51.194;5.112;2023-09-30T03:45:44;14.80;99.90
49829;DHT22;35723;51.194;5.112;2023-09-30T03:48:10;14.80;99.90
49829;DHT22;35723;51.194;5.112;2023-09-30T03:50:37;14.80;99.90
49829;DHT22;35723;51.194;5.112;2023-09-30T03:53:04;14.80;99.90
49829;DHT22;35723;51.194;5.112;2023-09-30T03:55:30;14.80;99.90
49829;DHT22;35723;51.194;5.112;2023-09-30T03:57:57;14.70;99.90
49829;DHT22;35723;51.194;5.112;2023-09-30T04:00:23;14.70;99.90
49829;DHT22;35723;51.194;5.112;2023-09-30T04:02:50;14.70;99.90
49829;DHT22;35723;51.194;5.112;2023-09-30T04:05:20;14.80;99.90
49829;DHT22;35723;51.194;5.112;2023-09-30T04:07:49;14.80;99.90
49829;DHT22;35723;51.194;5.112;2023-09-30T04:10:16;14.80;99.90
49829;DHT22;35723;51.194;5.112;2023-09-30T04:12:42;14.80;99.90
49829;DHT22;35723;51.194;5.112;2023-09-30T04:15:08;14.70;99.90
49829;DHT22;35723;51.194;5.112;2023-09-30T04:17:37;14.80;99.90
49829;DHT22;35723;51.194;5.112;2023-09-30T04:20:07;14.70;99.90
49829;DHT22;35723;51.194;5.112;2023-09-30T04:22:36;14.60;99.90
49829;DHT22;35723;51.194;5.112;2023-09-30T04:25:03;14.70;99.90
49829;DHT22;35723;51.194;5.112;2023-09-30T04:27:34;14.60;99.90
49829;DHT22;35723;51.194;5.112;2023-09-30T04:30:00;14.60;99.90
49829;DHT22;35723;51.194;5.112;2023-09-30T04:32:25;14.70;99.90
49829;DHT22;35723;51.194;5.112;2023-09-30T04:34:53;14.70;99.90
49829;DHT22;35723;51.194;5.112;2023-09-30T04:37:18;14.70;99.90
49829;DHT22;35723;51.194;5.112;2023-09-30T04:39:44;14.70;99.90
49829;DHT22;35723;51.194;5.112;2023-09-30T04:42:10;14.70;99.90
49829;DHT22;35723;51.194;5.112;2023-09-30T04:44:37;14.70;99.90
49829;DHT22;35723;51.194;5.112;2023-09-30T04:47:04;14.70;99.90
49829;DHT22;35723;51.194;5.112;2023-09-30T04:49:30;14.70;99.90
49829;DHT22;35723;51.194;5.112;2023-09-30T04:51:56;14.70;99.90
49829;DHT22;35723;51.194;5.112;2023-09-30T04:54:22;14.60;99.90
49829;DHT22;35723;51.194;5.112;2023-09-30T04:56:47;14.60;99.90
49829;DHT22;35723;51.194;5.112;2023-09-30T04:59:13;14.60;99.90
49829;DHT22;35723;51.194;5.112;2023-09-30T05:01:39;14.60;99.90
49829;DHT22;35723;51.194;5.112;2023-09-30T05:04:05;14.60;99.90
49829;DHT22;35723;51.194;5.112;2023-09-30T05:06:31;14.50;99.90
49829;DHT22;35723;51.194;5.112;2023-09-30T05:08:58;14.60;99.90
49829;DHT22;35723;51.194;5.112;2023-09-30T05:11:24;14.60;99.90
49829;DHT22;35723;51.194;5.112;2023-09-30T05:13:50;14.60;99.90
49829;DHT22;35723;51.194;5.112;2023-09-30T05:16:17;14.50;99.90
49829;DHT22;35723;51.194;5.112;2023-09-30T05:18:43;14.50;99.90
49829;DHT22;35723;51.194;5.112;2023-09-30T05:21:09;14.50;99.90
49829;DHT22;35723;51.194;5.112;2023-09-30T05:23:36;14.50;99.90
49829;DHT22;35723;51.194;5.112;2023-09-30T05:26:02;14.60;99.90
49829;DHT22;35723;51.194;5.112;2023-09-30T05:28:28;14.50;99.90
49829;DHT22;35723;51.194;5.112;2023-09-30T05:30:53;14.60;99.90
49829;DHT22;35723;51.194;5.112;2023-09-30T05:33:19;14.50;99.90
49829;DHT22;35723;51.194;5.112;2023-09-30T05:35:45;14.50;99.90
49829;DHT22;35723;51.194;5.112;2023-09-30T05:38:12;14.40;99.90
49829;DHT22;35723;51.194;5.112;2023-09-30T05:40:38;14.40;99.90
49829;DHT22;35723;51.194;5.112;2023-09-30T05:43:04;14.50;99.90
49829;DHT22;35723;51.194;5.112;2023-09-30T05:45:32;14.50;99.90
49829;DHT22;35723;51.194;5.112;2023-09-30T05:48:04;14.40;99.90
49829;DHT22;35723;51.194;5.112;2023-09-30T05:50:34;14.40;99.90
49829;DHT22;35723;51.194;5.112;2023-09-30T05:53:02;14.30;99.90
49829;DHT22;35723;51.194;5.112;2023-09-30T05:55:27;14.40;99.90
49829;DHT22;35723;51.194;5.112;2023-09-30T05:57:53;14.40;99.90
49829;DHT22;35723;51.194;5.112;2023-09-30T06:00:19;14.40;99.90
49829;DHT22;35723;51.194;5.112;2023-09-30T06:02:58;14.40;99.90
49829;DHT22;35723;51.194;5.112;2023-09-30T06:05:24;14.50;99.90
49829;DHT22;35723;51.194;5.112;2023-09-30T06:07:56;14.50;99.90
49829;DHT22;35723;51.194;5.112;2023-09-30T06:10:22;14.50;99.90
49829;DHT22;35723;51.194;5.112;2023-09-30T06:12:50;14.50;99.90
49829;DHT22;35723;51.194;5.112;2023-09-30T06:15:21;14.50;99.90
49829;DHT22;35723;51.194;5.112;2023-09-30T06:17:52;14.50;99.90
49829;DHT22;35723;51.194;5.112;2023-09-30T06:20:19;14.50;99.90
49829;DHT22;35723;51.194;5.112;2023-09-30T06:22:45;14.60;99.90
49829;DHT22;35723;51.194;5.112;2023-09-30T06:25:12;14.60;99.90
49829;DHT22;35723;51.194;5.112;2023-09-30T06:27:39;14.60;99.90
49829;DHT22;35723;51.194;5.112;2023-09-30T06:30:05;14.60;99.90
49829;DHT22;35723;51.194;5.112;2023-09-30T06:32:31;14.70;99.90
49829;DHT22;35723;51.194;5.112;2023-09-30T06:34:57;14.70;99.90
49829;DHT22;35723;51.194;5.112;2023-09-30T06:37:22;14.70;99.90
49829;DHT22;35723;51.194;5.112;2023-09-30T06:39:48;14.70;99.90
49829;DHT22;35723;51.194;5.112;2023-09-30T06:42:14;14.70;99.90
49829;DHT22;35723;51.194;5.112;2023-09-30T06:44:39;14.80;99.90
49829;DHT22;35723;51.194;5.112;2023-09-30T06:47:05;14.80;99.90
49829;DHT22;35723;51.194;5.112;2023-09-30T06:49:34;14.80;99.90
49829;DHT22;35723;51.194;5.112;2023-09-30T06:51:59;14.90;99.90
49829;DHT22;35723;51.194;5.112;2023-09-30T06:54:25;14.90;99.90
49829;DHT22;35723;51.194;5.112;2023-09-30T06:56:51;14.90;99.90
49829;DHT22;35723;51.194;5.112;2023-09-30T06:59:16;15.00;99.90
49829;DHT22;35723;51.194;5.112;2023-09-30T07:01:42;15.00;99.90
49829;DHT22;35723;51.194;5.112;2023-09-30T07:04:09;15.10;99.90
49829;DHT22;35723;51.194;5.112;2023-09-30T07:06:37;15.10;99.90
49829;DHT22;35723;51.194;5.112;2023-09-30T07:09:02;15.10;99.90
49829;DHT22;35723;51.194;5.112;2023-09-30T07:11:30;15.10;99.90
49829;DHT22;35723;51.194;5.112;2023-09-30T07:13:59;15.10;99.90
49829;DHT22;35723;51.194;5.112;2023-09-30T07:16:24;15.20;99.90
49829;DHT22;35723;51.194;5.112;2023-09-30T07:18:50;15.20;99.90
49829;DHT22;35723;51.194;5.112;2023-09-30T07:21:16;15.40;99.90
49829;DHT22;35723;51.194;5.112;2023-09-30T07:23:42;15.40;99.90
49829;DHT22;35723;51.194;5.112;2023-09-30T07:26:08;15.40;99.90
49829;DHT22;35723;51.194;5.112;2023-09-30T07:28:34;15.50;99.90
49829;DHT22;35723;51.194;5.112;2023-09-30T07:31:00;15.60;99.90
49829;DHT22;35723;51.194;5.112;2023-09-30T07:33:25;15.70;99.90
49829;DHT22;35723;51.194;5.112;2023-09-30T07:35:51;15.70;99.90
49829;DHT22;35723;51.194;5.112;2023-09-30T07:38:17;15.70;99.90
49829;DHT22;35723;51.194;5.112;2023-09-30T07:40:43;15.80;99.90
49829;DHT22;35723;51.194;5.112;2023-09-30T07:43:09;15.90;99.90
49829;DHT22;35723;51.194;5.112;2023-09-30T07:45:34;16.00;99.90
49829;DHT22;35723;51.194;5.112;2023-09-30T07:48:00;16.00;99.90
49829;DHT22;35723;51.194;5.112;2023-09-30T07:50:29;16.00;99.90
49829;DHT22;35723;51.194;5.112;2023-09-30T07:52:55;16.10;99.90
49829;DHT22;35723;51.194;5.112;2023-09-30T07:55:21;16.10;99.90
49829;DHT22;35723;51.194;5.112;2023-09-30T07:57:46;16.20;99.90
49829;DHT22;35723;51.194;5.112;2023-09-30T08:00:12;16.30;99.90
49829;DHT22;35723;51.194;5.112;2023-09-30T08:02:41;16.30;99.90
49829;DHT22;35723;51.194;5.112;2023-09-30T08:05:08;16.30;99.90
49829;DHT22;35723;51.194;5.112;2023-09-30T08:07:34;16.30;99.90
49829;DHT22;35723;51.194;5.112;2023-09-30T08:10:00;16.30;99.90
49829;DHT22;35723;51.194;5.112;2023-09-30T08:12:26;16.30;99.90
49829;DHT22;35723;51.194;5.112;2023-09-30T08:14:52;16.40;99.90
49829;DHT22;35723;51.194;5.112;2023-09-30T08:17:17;16.40;99.90
49829;DHT22;35723;51.194;5.112;2023-09-30T08:19:44;16.40;99.90
49829;DHT22;35723;51.194;5.112;2023-09-30T08:22:09;16.40;99.90
49829;DHT22;35723;51.194;5.112;2023-09-30T08:24:35;16.50;99.90
49829;DHT22;35723;51.194;5.112;2023-09-30T08:27:01;16.60;99.90
49829;DHT22;35723;51.194;5.112;2023-09-30T08:29:27;16.60;99.90
49829;DHT22;35723;51.194;5.112;2023-09-30T08:31:52;16.80;99.90
49829;DHT22;35723;51.194;5.112;2023-09-30T08:34:18;16.80;99.90
49829;DHT22;35723;51.194;5.112;2023-09-30T08:36:46;16.90;99.90
49829;DHT22;35723;51.194;5.112;2023-09-30T08:39:12;17.00;99.90
49829;DHT22;35723;51.194;5.112;2023-09-30T08:41:38;17.10;99.90
49829;DHT22;35723;51.194;5.112;2023-09-30T08:44:04;17.10;99.90
49829;DHT22;35723;51.194;5.112;2023-09-30T08:46:31;17.10;99.90
49829;DHT22;35723;51.194;5.112;2023-09-30T08:49:02;17.30;99.90
49829;DHT22;35723;51.194;5.112;2023-09-30T08:51:31;17.40;99.90
49829;DHT22;35723;51.194;5.112;2023-09-30T08:53:59;17.50;99.90
49829;DHT22;35723;51.194;5.112;2023-09-30T08:56:27;17.50;99.90
49829;DHT22;35723;51.194;5.112;2023-09-30T08:58:58;17.60;99.90
49829;DHT22;35723;51.194;5.112;2023-09-30T09:01:26;17.70;99.90
49829;DHT22;35723;51.194;5.112;2023-09-30T09:03:51;17.80;99.90
49829;DHT22;35723;51.194;5.112;2023-09-30T09:06:22;18.00;99.90
49829;DHT22;35723;51.194;5.112;2023-09-30T09:08:48;18.10;99.90
49829;DHT22;35723;51.194;5.112;2023-09-30T09:11:14;18.10;99.90
49829;DHT22;35723;51.194;5.112;2023-09-30T09:13:49;18.20;99.90
49829;DHT22;35723;51.194;5.112;2023-09-30T09:16:16;18.40;99.90
49829;DHT22;35723;51.194;5.112;2023-09-30T09:18:43;18.50;99.90
49829;DHT22;35723;51.194;5.112;2023-09-30T09:21:10;18.60;99.90
49829;DHT22;35723;51.194;5.112;2023-09-30T09:23:46;18.60;99.90
49829;DHT22;35723;51.194;5.112;2023-09-30T09:26:25;18.70;99.90
49829;DHT22;35723;51.194;5.112;2023-09-30T09:29:00;18.90;99.90
49829;DHT22;35723;51.194;5.112;2023-09-30T09:31:28;19.00;99.90
49829;DHT22;35723;51.194;5.112;2023-09-30T09:33:53;19.10;99.90
49829;DHT22;35723;51.194;5.112;2023-09-30T09:36:20;19.30;99.90
49829;DHT22;35723;51.194;5.112;2023-09-30T09:38:49;19.40;99.90
49829;DHT22;35723;51.194;5.112;2023-09-30T09:41:19;19.50;99.90
49829;DHT22;35723;51.194;5.112;2023-09-30T09:43:47;19.50;99.90
49829;DHT22;35723;51.194;5.112;2023-09-30T09:46:13;19.70;99.90
49829;DHT22;35723;51.194;5.112;2023-09-30T09:48:39;19.90;99.90
49829;DHT22;35723;51.194;5.112;2023-09-30T09:51:05;20.10;99.90
49829;DHT22;35723;51.194;5.112;2023-09-30T09:53:35;20.10;99.90
49829;DHT22;35723;51.194;5.112;2023-09-30T09:56:04;20.20;99.90
49829;DHT22;35723;51.194;5.112;2023-09-30T09:58:34;20.30;99.90
49829;DHT22;35723;51.194;5.112;2023-09-30T10:01:01;20.50;99.90
49829;DHT22;35723;51.194;5.112;2023-09-30T10:03:27;20.50;99.90
49829;DHT22;35723;51.194;5.112;2023-09-30T10:05:54;20.60;99.90
49829;DHT22;35723;51.194;5.112;2023-09-30T10:08:21;20.80;99.90
49829;DHT22;35723;51.194;5.112;2023-09-30T10:10:54;19.30;99.90
49829;DHT22;35723;51.194;5.112;2023-09-30T10:13:55;18.60;99.90
49829;DHT22;35723;51.194;5.112;2023-09-30T10:21:37;19.90;99.90
49829;DHT22;35723;51.194;5.112;2023-09-30T10:35:42;21.20;99.90
49829;DHT22;35723;51.194;5.112;2023-09-30T10:40:51;21.50;99.90
49829;DHT22;35723;51.194;5.112;2023-09-30T10:43:43;21.60;99.90
49829;DHT22;35723;51.194;5.112;2023-09-30T10:48:53;21.80;99.90
49829;DHT22;35723;51.194;5.112;2023-09-30T10:51:20;21.80;99.90
49829;DHT22;35723;51.194;5.112;2023-09-30T10:53:54;21.80;99.90
49829;DHT22;35723;51.194;5.112;2023-09-30T10:56:32;21.80;99.90
49829;DHT22;35723;51.194;5.112;2023-09-30T10:58:58;21.90;99.90
49829;DHT22;35723;51.194;5.112;2023-09-30T11:01:32;21.90;99.90
49829;DHT22;35723;51.194;5.112;2023-09-30T11:03:59;22.00;99.90
49829;DHT22;35723;51.194;5.112;2023-09-30T11:06:29;22.10;99.90
49829;DHT22;35723;51.194;5.112;2023-09-30T11:09:00;22.20;99.90
49829;DHT22;35723;51.194;5.112;2023-09-30T11:11:40;22.20;99.90
49829;DHT22;35723;51.194;5.112;2023-09-30T11:14:25;22.30;99.90
49829;DHT22;35723;51.194;5.112;2023-09-30T11:16:52;22.40;99.90
49829;DHT22;35723;51.194;5.112;2023-09-30T11:19:19;22.40;99.90
49829;DHT22;35723;51.194;5.112;2023-09-30T11:21:54;22.50;99.90
49829;DHT22;35723;51.194;5.112;2023-09-30T11:24:21;22.50;99.90
49829;DHT22;35723;51.194;5.112;2023-09-30T11:26:47;22.30;99.90
49829;DHT22;35723;51.194;5.112;2023-09-30T11:29:16;22.50;99.90
49829;DHT22;35723;51.194;5.112;2023-09-30T11:31:45;22.60;99.90
49829;DHT22;35723;51.194;5.112;2023-09-30T11:34:12;22.60;99.90
49829;DHT22;35723;51.194;5.112;2023-09-30T11:36:40;22.70;99.90
49829;DHT22;35723;51.194;5.112;2023-09-30T11:39:09;22.80;99.90
49829;DHT22;35723;51.194;5.112;2023-09-30T11:41:41;22.80;99.90
49829;DHT22;35723;51.194;5.112;2023-09-30T11:44:10;22.90;99.90
49829;DHT22;35723;51.194;5.112;2023-09-30T11:47:01;22.90;99.90
49829;DHT22;35723;51.194;5.112;2023-09-30T11:49:35;22.90;99.90
49829;DHT22;35723;51.194;5.112;2023-09-30T11:52:03;23.00;99.90
49829;DHT22;35723;51.194;5.112;2023-09-30T11:54:33;22.90;99.90
49829;DHT22;35723;51.194;5.112;2023-09-30T11:57:00;23.00;99.90
49829;DHT22;35723;51.194;5.112;2023-09-30T11:59:27;23.10;99.90
49829;DHT22;35723;51.194;5.112;2023-09-30T12:01:53;23.20;99.90
49829;DHT22;35723;51.194;5.112;2023-09-30T12:04:20;23.30;99.90
49829;DHT22;35723;51.194;5.112;2023-09-30T12:06:49;23.40;99.90
49829;DHT22;35723;51.194;5.112;2023-09-30T12:09:15;23.40;99.90
49829;DHT22;35723;51.194;5.112;2023-09-30T12:11:42;23.50;99.90
49829;DHT22;35723;51.194;5.112;2023-09-30T12:14:13;23.60;99.90
49829;DHT22;35723;51.194;5.112;2023-09-30T12:16:39;23.70;99.90
49829;DHT22;35723;51.194;5.112;2023-09-30T12:19:05;23.80;99.90
49829;DHT22;35723;51.194;5.112;2023-09-30T12:21:34;23.80;99.90
49829;DHT22;35723;51.194;5.112;2023-09-30T12:24:00;23.90;99.90
49829;DHT22;35723;51.194;5.112;2023-09-30T12:26:27;24.10;99.90
49829;DHT22;35723;51.194;5.112;2023-09-30T12:28:52;24.20;99.90
49829;DHT22;35723;51.194;5.112;2023-09-30T12:31:18;24.20;99.90
49829;DHT22;35723;51.194;5.112;2023-09-30T12:33:45;24.30;99.90
49829;DHT22;35723;51.194;5.112;2023-09-30T12:36:15;24.30;99.90
49829;DHT22;35723;51.194;5.112;2023-09-30T12:38:42;24.40;99.90
49829;DHT22;35723;51.194;5.112;2023-09-30T12:41:08;24.40;99.90
49829;DHT22;35723;51.194;5.112;2023-09-30T12:43:33;24.50;99.90
49829;DHT22;35723;51.194;5.112;2023-09-30T12:45:59;24.60;99.90
49829;DHT22;35723;51.194;5.112;2023-09-30T12:48:25;24.60;99.90
49829;DHT22;35723;51.194;5.112;2023-09-30T12:50:50;24.60;99.90
49829;DHT22;35723;51.194;5.112;2023-09-30T12:53:16;24.70;99.90
49829;DHT22;35723;51.194;5.112;2023-09-30T12:55:42;24.70;99.90
49829;DHT22;35723;51.194;5.112;2023-09-30T12:58:08;24.70;99.90
49829;DHT22;35723;51.194;5.112;2023-09-30T13:00:34;24.60;99.90
49829;DHT22;35723;51.194;5.112;2023-09-30T13:03:01;24.70;99.90
49829;DHT22;35723;51.194;5.112;2023-09-30T13:05:28;24.70;99.90
49829;DHT22;35723;51.194;5.112;2023-09-30T13:07:56;24.70;99.90
49829;DHT22;35723;51.194;5.112;2023-09-30T13:10:23;24.70;99.90
49829;DHT22;35723;51.194;5.112;2023-09-30T13:12:49;24.70;99.90
49829;DHT22;35723;51.194;5.112;2023-09-30T13:15:16;24.80;99.90
49829;DHT22;35723;51.194;5.112;2023-09-30T13:17:42;24.70;99.90
49829;DHT22;35723;51.194;5.112;2023-09-30T13:20:09;24.70;99.90
49829;DHT22;35723;51.194;5.112;2023-09-30T13:22:40;24.70;99.90
49829;DHT22;35723;51.194;5.112;2023-09-30T13:25:06;24.70;99.90
49829;DHT22;35723;51.194;5.112;2023-09-30T13:27:33;24.60;99.90
49829;DHT22;35723;51.194;5.112;2023-09-30T13:29:59;24.00;99.90
49829;DHT22;35723;51.194;5.112;2023-09-30T13:32:26;22.60;99.90
49829;DHT22;35723;51.194;5.112;2023-09-30T13:34:52;22.90;99.90
49829;DHT22;35723;51.194;5.112;2023-09-30T13:37:18;23.20;99.90
49829;DHT22;35723;51.194;5.112;2023-09-30T13:39:43;23.50;99.90
49829;DHT22;35723;51.194;5.112;2023-09-30T13:42:09;23.70;99.90
49829;DHT22;35723;51.194;5.112;2023-09-30T13:44:35;23.90;99.90
49829;DHT22;35723;51.194;5.112;2023-09-30T13:47:02;24.10;99.90
49829;DHT22;35723;51.194;5.112;2023-09-30T13:49:28;24.20;99.90
49829;DHT22;35723;51.194;5.112;2023-09-30T13:51:55;24.30;99.90
49829;DHT22;35723;51.194;5.112;2023-09-30T13:54:21;24.40;99.90
49829;DHT22;35723;51.194;5.112;2023-09-30T13:56:47;24.40;99.90
49829;DHT22;35723;51.194;5.112;2023-09-30T13:59:13;24.40;99.90
49829;DHT22;35723;51.194;5.112;2023-09-30T14:01:39;24.50;99.90
49829;DHT22;35723;51.194;5.112;2023-09-30T14:04:07;24.50;99.90
49829;DHT22;35723;51.194;5.112;2023-09-30T14:06:33;24.50;99.90
49829;DHT22;35723;51.194;5.112;2023-09-30T14:08:58;24.50;99.90
49829;DHT22;35723;51.194;5.112;2023-09-30T14:11:24;24.50;99.90
49829;DHT22;35723;51.194;5.112;2023-09-30T14:13:50;24.50;99.90
49829;DHT22;35723;51.194;5.112;2023-09-30T14:16:15;24.50;99.90
49829;DHT22;35723;51.194;5.112;2023-09-30T14:18:42;24.50;99.90
49829;DHT22;35723;51.194;5.112;2023-09-30T14:21:08;24.50;99.90
49829;DHT22;35723;51.194;5.112;2023-09-30T14:23:34;24.50;99.90
49829;DHT22;35723;51.194;5.112;2023-09-30T14:25:59;24.50;99.90
49829;DHT22;35723;51.194;5.112;2023-09-30T14:28:26;24.40;99.90
49829;DHT22;35723;51.194;5.112;2023-09-30T14:30:51;24.40;99.90
49829;DHT22;35723;51.194;5.112;2023-09-30T14:33:17;24.40;99.90
49829;DHT22;35723;51.194;5.112;2023-09-30T14:35:45;24.40;99.90
49829;DHT22;35723;51.194;5.112;2023-09-30T14:38:10;24.40;99.90
49829;DHT22;35723;51.194;5.112;2023-09-30T14:40:38;24.40;99.90
49829;DHT22;35723;51.194;5.112;2023-09-30T14:43:07;24.30;99.90
49829;DHT22;35723;51.194;5.112;2023-09-30T14:45:42;24.20;99.90
49829;DHT22;35723;51.194;5.112;2023-09-30T14:48:08;24.20;99.90
49829;DHT22;35723;51.194;5.112;2023-09-30T14:50:37;24.20;99.90
49829;DHT22;35723;51.194;5.112;2023-09-30T14:53:03;24.20;99.90
49829;DHT22;35723;51.194;5.112;2023-09-30T14:55:31;24.20;99.90
49829;DHT22;35723;51.194;5.112;2023-09-30T14:57:57;24.20;99.90
49829;DHT22;35723;51.194;5.112;2023-09-30T15:00:22;24.20;99.90
49829;DHT22;35723;51.194;5.112;2023-09-30T15:02:50;24.20;99.90
49829;DHT22;35723;51.194;5.112;2023-09-30T15:05:16;24.10;99.90
49829;DHT22;35723;51.194;5.112;2023-09-30T15:07:42;24.10;99.90
49829;DHT22;35723;51.194;5.112;2023-09-30T15:10:08;24.20;99.90
49829;DHT22;35723;51.194;5.112;2023-09-30T15:12:34;24.10;99.90
49829;DHT22;35723;51.194;5.112;2023-09-30T15:15:01;24.10;99.90
49829;DHT22;35723;51.194;5.112;2023-09-30T15:17:29;24.10;99.90
49829;DHT22;35723;51.194;5.112;2023-09-30T15:19:55;24.10;99.90
49829;DHT22;35723;51.194;5.112;2023-09-30T15:22:20;24.10;99.90
49829;DHT22;35723;51.194;5.112;2023-09-30T15:24:46;24.10;99.90
49829;DHT22;35723;51.194;5.112;2023-09-30T15:27:12;24.00;99.90
49829;DHT22;35723;51.194;5.112;2023-09-30T15:29:37;24.00;99.90
49829;DHT22;35723;51.194;5.112;2023-09-30T15:32:04;24.00;99.90
49829;DHT22;35723;51.194;5.112;2023-09-30T15:34:30;24.00;99.90
49829;DHT22;35723;51.194;5.112;2023-09-30T15:36:55;24.00;99.90
49829;DHT22;35723;51.194;5.112;2023-09-30T15:39:22;23.90;99.90
49829;DHT22;35723;51.194;5.112;2023-09-30T15:41:48;23.80;99.90
49829;DHT22;35723;51.194;5.112;2023-09-30T15:44:13;23.80;99.90
49829;DHT22;35723;51.194;5.112;2023-09-30T15:46:39;23.80;99.90
49829;DHT22;35723;51.194;5.112;2023-09-30T15:49:05;23.80;99.90
49829;DHT22;35723;51.194;5.112;2023-09-30T15:51:30;23.70;99.90